Delta Poseidon — SVBF6 — position and weather

sailwx.info

Track history (hours):
 
Tides and Currents Weather Stations Pressure Air Temp Water Temp Dewpoint Dewpoint Depression Visibility Wind Speed Wind Dir Waves Ship Positions

Delta Poseidon

Last reported at 2015-Apr-10 04:33 UTC. Time now 2015-Apr-21 05:06 UTC.
Position N 27°34' W 015°14'.
Warning: this ship's position is 11 days out of date.

Length 274 m; draft 9 m.

Type: Tanker. MMSI: 241086000.

Date/timePositionNaut miles runAvg speedWind from/ knotsBaromVisibWave heightAir tempDewpointWater temp
2015-Apr-10 04:33N 27°34' W 015°14'1111.1
2015-Apr-10 03:33N 27°45' W 015°09'1111.0
2015-Apr-10 02:33N 27°55' W 015°05'1111.2
2015-Apr-10 01:33N 28°06' W 015°01'1110.9
2015-Apr-10 00:33N 28°16' W 014°57'1111.2
2015-Apr-09 23:33N 28°26' W 014°53'1111.0
2015-Apr-09 22:33N 28°36' W 014°46'1111.3
2015-Apr-09 21:33N 28°44' W 014°38'1111.3
2015-Apr-09 20:33N 28°53' W 014°29'1111.4
2015-Apr-09 19:33N 29°02' W 014°21'1211.4
2015-Apr-09 18:29N 29°11' W 014°12'1111.4
2015-Apr-09 17:33N 29°19' W 014°04'  
Track history (hours):
 
Tides and Currents Weather Stations Pressure Air Temp Water Temp Dewpoint Dewpoint Depression Visibility Wind Speed Wind Dir Waves Ship Positions

Delta Poseidon

Last reported at 2015-Apr-10 04:33 UTC. Time now 2015-Apr-21 05:06 UTC.
Position N 27°34' W 015°14'.
Warning: this ship's position is 11 days out of date.

Length 274 m; draft 9 m.

Type: Tanker. MMSI: 241086000.

Date/timePositionNaut miles runAvg speedWind from/ knotsBaromVisibWave heightAir tempDewpointWater temp
2015-Apr-10 04:33N 27°34' W 015°14'1111.1
2015-Apr-10 03:33N 27°45' W 015°09'1111.0
2015-Apr-10 02:33N 27°55' W 015°05'1111.2
2015-Apr-10 01:33N 28°06' W 015°01'1110.9
2015-Apr-10 00:33N 28°16' W 014°57'1111.2
2015-Apr-09 23:33N 28°26' W 014°53'1111.0
2015-Apr-09 22:33N 28°36' W 014°46'1111.3
2015-Apr-09 21:33N 28°44' W 014°38'1111.3
2015-Apr-09 20:33N 28°53' W 014°29'1111.4
2015-Apr-09 19:33N 29°02' W 014°21'1211.4
2015-Apr-09 18:29N 29°11' W 014°12'1111.4
2015-Apr-09 17:33N 29°19' W 014°04'  

Dump ship's entire track history